
Distance (Route):
Temperature : 4.2°C
Humidity : 61.1%
Pressure : 0hPa| Receiver | Frames | First received | Last received |
|---|---|---|---|
| LZ4TU-5 | 145 | 2026-09-04 11:07:56 | 2026-09-04 13:13:48 |
| Receiver | Date | Latitude | Longitude | Direction | Speed | Altitude | Climb | Temperature | Humidity | Pressure | Voltage | Killtimer | Uptime | BKT | XDATA |
|---|---|---|---|---|---|---|---|---|---|---|---|---|---|---|---|
| LZ4TU-5 | 2026-09-04 13:13:48 | -50.52565 | -45.64813 | 0° | 0km/h | 12699m | 0.0m/s | 4.2°C | 61.1% | 0hPa | 0V | 00:00:00 | 00:00:00 | 00:00:00 | |
| LZ4TU-5 | 2026-09-04 13:13:43 | -50.52565 | -45.64813 | 0° | 0km/h | 12699m | 0.0m/s | 3.8°C | 61.7% | 0hPa | 0V | 00:00:00 | 00:00:00 | 00:00:00 | |
| LZ4TU-5 | 2026-09-04 13:12:34 | -50.52565 | -45.64813 | 0° | 0km/h | 12699m | 0.0m/s | -0.3°C | 52.5% | 0hPa | 0V | 00:00:00 | 00:00:00 | 00:00:00 | |
| LZ4TU-5 | 2026-09-04 13:12:30 | -50.52565 | -45.64813 | 0° | 0km/h | 12699m | 0.0m/s | -0.7°C | 0% | 0hPa | 0V | 00:00:00 | 00:00:00 | 00:00:00 | |
| LZ4TU-5 | 2026-09-04 13:11:21 | -50.52565 | -45.64813 | 0° | 0km/h | 12699m | 0.0m/s | -4.2°C | 28.0% | 0hPa | 0V | 00:00:00 | 00:00:00 | 00:00:00 | |
| LZ4TU-5 | 2026-09-04 13:11:16 | -50.52565 | -45.64813 | 0° | 0km/h | 12699m | 0.0m/s | -4.4°C | 25.4% | 0hPa | 0V | 00:00:00 | 00:00:00 | 00:00:00 | |
| LZ4TU-5 | 2026-09-04 13:10:04 | -50.52565 | -45.64813 | 0° | 0km/h | 12699m | 0.0m/s | -10.0°C | 35.9% | 0hPa | 0V | 00:00:00 | 00:00:00 | 00:00:00 | |
| LZ4TU-5 | 2026-09-04 13:10:00 | -50.52565 | -45.64813 | 0° | 0km/h | 12699m | 0.0m/s | -10.3°C | 0% | 0hPa | 0V | 00:00:00 | 00:00:00 | 00:00:00 | |
| LZ4TU-5 | 2026-09-04 13:08:48 | -50.52565 | -45.64813 | 0° | 0km/h | 12699m | 0.0m/s | -14.1°C | 11.3% | 0hPa | 0V | 00:00:00 | 00:00:00 | 00:00:00 | |
| LZ4TU-5 | 2026-09-04 13:08:44 | -50.52565 | -45.64813 | 0° | 0km/h | 12699m | 0.0m/s | -14.4°C | 0% | 0hPa | 0V | 00:00:00 | 00:00:00 | 00:00:00 | |
| LZ4TU-5 | 2026-09-04 13:07:32 | -50.52565 | -45.64813 | 0° | 0km/h | 12699m | 0.0m/s | -19.2°C | 16.4% | 0hPa | 0V | 00:00:00 | 00:00:00 | 00:00:00 | |
| LZ4TU-5 | 2026-09-04 13:07:28 | -50.52565 | -45.64813 | 0° | 0km/h | 12699m | 0.0m/s | -19.5°C | 17.1% | 0hPa | 0V | 00:00:00 | 00:00:00 | 00:00:00 | |
| LZ4TU-5 | 2026-09-04 13:05:12 | -50.52565 | -45.64813 | 0° | 0km/h | 12699m | 0.0m/s | -29.2°C | 36.2% | 0hPa | 0V | 00:00:00 | 00:00:00 | 00:00:00 | |
| LZ4TU-5 | 2026-09-04 13:05:08 | -50.52565 | -45.64813 | 0° | 0km/h | 12699m | 0.0m/s | -29.6°C | 36.1% | 0hPa | 0V | 00:00:00 | 00:00:00 | 00:00:00 | |
| LZ4TU-5 | 2026-09-04 13:03:54 | -50.52565 | -45.64813 | 0° | 0km/h | 12699m | 0.0m/s | -36.9°C | 26.2% | 0hPa | 0V | 00:00:00 | 00:00:00 | 00:00:00 | |
| LZ4TU-5 | 2026-09-04 13:03:50 | -50.52565 | -45.64813 | 0° | 0km/h | 12699m | 0.0m/s | -37.3°C | 0% | 0hPa | 0V | 00:00:00 | 00:00:00 | 00:00:00 | |
| LZ4TU-5 | 2026-09-04 13:02:29 | -50.52565 | -45.64813 | 0° | 0km/h | 12699m | 0.0m/s | -46.9°C | 27.3% | 0hPa | 0V | 00:00:00 | 00:00:00 | 00:00:00 | |
| LZ4TU-5 | 2026-09-04 13:02:25 | -50.52565 | -45.64813 | 0° | 0km/h | 12699m | 0.0m/s | -47.3°C | 28.7% | 0hPa | 0V | 00:00:00 | 00:00:00 | 00:00:00 | |
| LZ4TU-5 | 2026-09-04 13:01:03 | -50.52565 | -45.64813 | 0° | 0km/h | 12699m | 0.0m/s | -54.4°C | 30.1% | 0hPa | 0V | 00:00:00 | 00:00:00 | 00:00:00 | |
| LZ4TU-5 | 2026-09-04 13:00:59 | -50.52565 | -45.64813 | 0° | 0km/h | 12699m | 0.0m/s | -55.0°C | 30.0% | 0hPa | 0V | 00:00:00 | 00:00:00 | 00:00:00 | |
| LZ4TU-5 | 2026-09-04 12:56:34 | -50.52565 | -45.64813 | 0° | 0km/h | 12699m | 0.0m/s | -57.0°C | 2.1% | 0hPa | 0V | 08:02:00 | 00:00:00 | 00:00:00 | |
| LZ4TU-5 | 2026-09-04 12:56:30 | -50.52565 | -45.64813 | 0° | 0km/h | 12699m | 0.0m/s | -57.4°C | 2.2% | 0hPa | 0V | 00:00:00 | 00:00:00 | 00:00:00 | |
| LZ4TU-5 | 2026-09-04 12:53:30 | -50.89558 | -45.25494 | 0° | 0km/h | 12834m | 0.0m/s | -55.1°C | 1.9% | 0hPa | 0V | 00:00:00 | 00:00:00 | 00:00:00 | |
| LZ4TU-5 | 2026-09-04 12:53:26 | -51.11886 | -40.73482 | 0° | 0km/h | 12916m | 0.0m/s | -54.7°C | 1.9% | 0hPa | 0V | 00:00:00 | 00:00:00 | 00:00:00 | |
| LZ4TU-5 | 2026-09-04 12:51:26 | -47.88798 | -76.45846 | 0° | 0km/h | 11724m | 0.0m/s | -52.0°C | 1.7% | 0hPa | 0V | 08:07:00 | 00:00:00 | 00:00:00 | |
| LZ4TU-5 | 2026-09-04 12:51:22 | -47.88798 | -76.45846 | 0° | 0km/h | 11724m | 0.0m/s | -51.8°C | 1.7% | 0hPa | 0V | 00:00:00 | 00:00:00 | 00:00:00 | |
| LZ4TU-5 | 2026-09-04 12:49:38 | -47.88798 | -76.45846 | 0° | 0km/h | 11724m | 0.0m/s | -45.8°C | 1.2% | 0hPa | 0V | 00:00:00 | 00:00:00 | 00:00:00 | |
| LZ4TU-5 | 2026-09-04 12:49:34 | -47.88798 | -76.45846 | 0° | 0km/h | 11724m | 0.0m/s | -46.5°C | 1.3% | 0hPa | 0V | 00:00:00 | 00:00:00 | 00:00:00 | |
| LZ4TU-5 | 2026-09-04 12:47:37 | -47.88798 | -76.45846 | 0° | 0km/h | 11724m | 0.0m/s | -46.7°C | 1.3% | 0hPa | 0V | 00:00:00 | 00:00:00 | 00:00:00 | |
| LZ4TU-5 | 2026-09-04 12:47:33 | -47.88798 | -76.45846 | 0° | 0km/h | 11724m | 0.0m/s | -46.9°C | 1.3% | 0hPa | 0V | 00:00:00 | 00:00:00 | 00:00:00 | |
| LZ4TU-5 | 2026-09-04 12:45:32 | -47.88798 | -76.45846 | 0° | 0km/h | 11724m | 0.0m/s | -46.3°C | 1.3% | 0hPa | 0V | 00:00:00 | 00:00:00 | 00:00:00 | |
| LZ4TU-5 | 2026-09-04 12:43:38 | -47.78574 | -76.21097 | 0° | 0km/h | 11686m | 0.0m/s | -48.1°C | 1.4% | 0hPa | 0V | 00:00:00 | 00:00:00 | 00:00:00 | |
| LZ4TU-5 | 2026-09-04 12:43:34 | -47.76326 | -76.21629 | 0° | 0km/h | 11678m | 0.0m/s | -48.1°C | 3.5% | 0hPa | 0V | 00:00:00 | 00:00:00 | 00:00:00 | |
| LZ4TU-5 | 2026-09-04 12:40:56 | -2.39139 | -68.92843 | 0° | 0km/h | 37m | 0.0m/s | -49.2°C | 3.6% | 0hPa | 0V | 08:18:00 | 00:00:00 | 00:00:00 | |
| LZ4TU-5 | 2026-09-04 12:40:51 | -7.09979 | -68.42364 | 0° | 0km/h | 324m | 0.0m/s | -49.2°C | 3.6% | 0hPa | 0V | 00:00:00 | 00:00:00 | 00:00:00 | |
| LZ4TU-5 | 2026-09-04 12:38:48 | -4.98214 | -68.85561 | 0° | 0km/h | 160m | 0.0m/s | -49.9°C | 3.8% | 0hPa | 0V | 00:00:00 | 00:00:00 | 00:00:00 | |
| LZ4TU-5 | 2026-09-04 12:38:43 | -4.09923 | -68.98734 | 0° | 0km/h | 109m | 0.0m/s | -49.9°C | 0% | 0hPa | 0V | 00:00:00 | 00:00:00 | 00:00:00 | |
| LZ4TU-5 | 2026-09-04 12:36:49 | -6.72372 | -66.78199 | 0° | 0km/h | 291m | 0.0m/s | -51.1°C | 3.8% | 0hPa | 0V | 00:00:00 | 00:00:00 | 00:00:00 | |
| LZ4TU-5 | 2026-09-04 12:36:45 | -10.93326 | -67.23809 | 0° | 0km/h | 763m | 0.0m/s | -51.4°C | 1.9% | 0hPa | 0V | 00:00:00 | 00:00:00 | 00:00:00 | |
| LZ4TU-5 | 2026-09-04 12:34:49 | 41.00212 | -67.17974 | 0° | 0km/h | 9161m | 0.0m/s | -52.4°C | 2.0% | 0hPa | 0V | 00:00:00 | 00:00:00 | 00:00:00 | |
| LZ4TU-5 | 2026-09-04 12:34:44 | 42.59321 | -68.60537 | 0° | 0km/h | 9751m | 0.0m/s | -52.3°C | 4.0% | 0hPa | 0V | 00:00:00 | 00:00:00 | 00:00:00 | |
| LZ4TU-5 | 2026-09-04 12:28:30 | -12.02549 | -77.10314 | 87° | 414km/h | 5870m | -130.9m/s | -54.3°C | 2.6% | 0hPa | 0V | 00:00:00 | 00:00:00 | 00:00:00 | |
| LZ4TU-5 | 2026-09-04 12:28:25 | -12.02570 | -77.10825 | 89° | 358km/h | 6532m | -129.3m/s | -54.2°C | 4.1% | 0hPa | 0V | 00:00:00 | 00:00:00 | 00:00:00 | |
| LZ4TU-5 | 2026-09-04 12:26:20 | -12.04784 | -77.05263 | 291° | 199km/h | 990m | 0.2m/s | -55.6°C | 4.3% | 0hPa | 0V | 00:00:00 | 00:00:00 | 00:00:00 | |
| LZ4TU-5 | 2026-09-04 12:26:16 | -12.04830 | -77.05063 | 278° | 199km/h | 988m | -0.6m/s | -55.6°C | 4.3% | 0hPa | 0V | 00:00:00 | 00:00:00 | 00:00:00 | |
| LZ4TU-5 | 2026-09-04 12:24:19 | -12.04823 | -77.04814 | 262° | 199km/h | 983m | 0.1m/s | -56.7°C | 4.4% | 0hPa | 0V | 00:00:00 | 00:00:00 | 00:00:00 | |
| LZ4TU-5 | 2026-09-04 12:24:14 | -12.04748 | -77.04565 | 248° | 193km/h | 983m | -2.0m/s | -57.1°C | 2.9% | 0hPa | 0V | 00:00:00 | 00:00:00 | 00:00:00 | |
| LZ4TU-5 | 2026-09-04 12:22:06 | -33.68304 | -65.04069 | 0° | 0km/h | 6539m | 0.0m/s | -55.8°C | 2.8% | 0hPa | 0V | 00:00:00 | 00:00:00 | 00:00:00 | |
| LZ4TU-5 | 2026-09-04 12:22:02 | -33.72405 | -64.83923 | 0° | 0km/h | 6554m | 0.0m/s | -55.6°C | 1.9% | 0hPa | 0V | 00:00:00 | 00:00:00 | 00:00:00 | |
| LZ4TU-5 | 2026-09-04 12:20:00 | -48.87333 | -50.20477 | 0° | 0km/h | 12090m | 0.0m/s | -55.3°C | 1.9% | 0hPa | 0V | 00:00:00 | 00:00:00 | 00:00:00 | |
| LZ4TU-5 | 2026-09-04 12:19:55 | -46.85333 | -38.05266 | 0° | 0km/h | 11339m | 0.0m/s | -55.8°C | 4.7% | 0hPa | 0V | 00:00:00 | 00:00:00 | 00:00:00 | |
| LZ4TU-5 | 2026-09-04 12:16:08 | -11.30606 | -86.14027 | 0° | 0km/h | 815m | 0.0m/s | -55.2°C | 4.4% | 0hPa | 0V | 00:00:00 | 00:00:00 | 00:00:00 | |
| LZ4TU-5 | 2026-09-04 12:16:03 | -9.42599 | -85.65660 | 0° | 0km/h | 569m | 0.0m/s | -55.0°C | 4.0% | 0hPa | 0V | 00:00:00 | 00:00:00 | 00:00:00 | |
| LZ4TU-5 | 2026-09-04 12:14:04 | 16.37496 | -75.97853 | 0° | 0km/h | 1686m | 0.0m/s | -55.7°C | 4.8% | 0hPa | 0V | 00:00:00 | 00:00:00 | 00:00:00 | |
| LZ4TU-5 | 2026-09-04 12:13:59 | -2.19461 | -82.68539 | 0° | 0km/h | 31m | 0.0m/s | -55.7°C | 2.9% | 0hPa | 0V | 00:00:00 | 00:00:00 | 00:00:00 | |
| LZ4TU-5 | 2026-09-04 12:12:11 | -34.14033 | -75.92860 | 0° | 0km/h | 6697m | 0.0m/s | -55.2°C | 2.8% | 0hPa | 0V | 00:00:00 | 00:00:00 | 00:00:00 | |
| LZ4TU-5 | 2026-09-04 12:12:06 | -34.29563 | -72.72140 | 0° | 0km/h | 6751m | 0.0m/s | -55.2°C | 2.7% | 0hPa | 0V | 00:00:00 | 00:00:00 | 00:00:00 | |
| LZ4TU-5 | 2026-09-04 12:12:01 | -34.87123 | -72.77769 | 0° | 0km/h | 6951m | 0.0m/s | -55.0°C | 2.8% | 0hPa | 0V | 00:00:00 | 00:00:00 | 00:00:00 | |
| LZ4TU-5 | 2026-09-04 12:11:56 | -38.43807 | -67.17252 | 0° | 0km/h | 8222m | 0.0m/s | -54.9°C | 2.4% | 0hPa | 0V | 00:00:00 | 00:00:00 | 00:00:00 | |
| LZ4TU-5 | 2026-09-04 12:11:52 | -38.43807 | -67.17252 | 0° | 0km/h | 8222m | 0.0m/s | -55.0°C | 2.4% | 0hPa | 0V | 00:00:00 | 00:00:00 | 00:00:00 | |
| LZ4TU-5 | 2026-09-04 12:11:48 | -39.54413 | -67.43351 | 0° | 0km/h | 8625m | 0.0m/s | -55.2°C | 4.3% | 0hPa | 0V | 00:00:00 | 00:00:00 | 00:00:00 | |
| LZ4TU-5 | 2026-09-04 12:10:01 | -12.51187 | -78.82110 | 0° | 0km/h | 996m | 0.0m/s | -56.5°C | 4.7% | 0hPa | 0V | 00:00:00 | 00:00:00 | 00:00:00 | |
| LZ4TU-5 | 2026-09-04 12:09:56 | -26.48254 | -72.99490 | 0° | 0km/h | 4224m | 0.0m/s | -56.4°C | 3.6% | 0hPa | 0V | 00:00:00 | 00:00:00 | 00:00:00 | |
| LZ4TU-5 | 2026-09-04 12:07:59 | -26.48254 | -72.99490 | 0° | 0km/h | 4224m | 0.0m/s | -56.8°C | 3.9% | 0hPa | 0V | 00:00:00 | 00:00:00 | 00:00:00 | |
| LZ4TU-5 | 2026-09-04 12:07:50 | 43.97822 | 26.20988 | 0° | 0km/h | 15388m | 0.0m/s | -56.6°C | 2.3% | 0hPa | 0V | 00:00:00 | 00:00:00 | 00:00:00 | |
| LZ4TU-5 | 2026-09-04 12:05:41 | 43.97894 | 26.20601 | 106° | 18km/h | 15255m | 4.5m/s | -55.4°C | 2.2% | 0hPa | 0V | 00:00:00 | 00:00:00 | 00:00:00 | |
| LZ4TU-5 | 2026-09-04 12:05:36 | 43.97898 | 26.20577 | 112° | 11km/h | 15232m | 4.5m/s | -55.2°C | 2.2% | 0hPa | 0V | 00:00:00 | 00:00:00 | 00:00:00 | |
| LZ4TU-5 | 2026-09-04 12:03:41 | 43.98096 | 26.19774 | 108° | 31km/h | 14750m | 4.7m/s | -53.7°C | 2.0% | 0hPa | 0V | 00:00:00 | 00:00:00 | 00:00:00 | |
| LZ4TU-5 | 2026-09-04 12:03:36 | 43.98109 | 26.19718 | 108° | 35km/h | 14732m | 4.4m/s | -53.6°C | 2.0% | 0hPa | 0V | 00:00:00 | 00:00:00 | 00:00:00 | |
| LZ4TU-5 | 2026-09-04 12:01:52 | 43.98599 | 26.18500 | 120° | 60km/h | 14289m | 3.8m/s | -54.4°C | 2.2% | 0hPa | 0V | 00:00:00 | 00:00:00 | 00:00:00 | |
| LZ4TU-5 | 2026-09-04 12:01:47 | 43.98635 | 26.18402 | 114° | 62km/h | 14268m | 3.4m/s | -54.3°C | 2.2% | 0hPa | 0V | 00:00:00 | 00:00:00 | 00:00:00 | |
| LZ4TU-5 | 2026-09-04 11:59:58 | 43.99378 | 26.16533 | 124° | 44km/h | 13801m | 3.9m/s | -55.1°C | 2.3% | 0hPa | 0V | 00:00:00 | 00:00:00 | 00:00:00 | |
| LZ4TU-5 | 2026-09-04 11:59:53 | 43.99407 | 26.16466 | 120° | 46km/h | 13779m | 3.8m/s | -55.4°C | 0% | 0hPa | 0V | 00:00:00 | 00:00:00 | 00:00:00 | |
| LZ4TU-5 | 2026-09-04 11:58:11 | 44.00047 | 26.15576 | 154° | 29km/h | 13348m | 4.8m/s | -53.9°C | 2.2% | 0hPa | 0V | 00:00:00 | 00:00:00 | 00:00:00 | |
| LZ4TU-5 | 2026-09-04 11:58:07 | 44.00070 | 26.15560 | 156° | 24km/h | 13331m | 4.8m/s | -54.0°C | 2.3% | 0hPa | 0V | 00:00:00 | 00:00:00 | 00:00:00 | |
| LZ4TU-5 | 2026-09-04 11:56:21 | 44.01264 | 26.15277 | 171° | 64km/h | 12879m | 4.8m/s | -53.2°C | 3.1% | 0hPa | 0V | 00:00:00 | 00:00:00 | 00:00:00 | |
| LZ4TU-5 | 2026-09-04 11:56:16 | 44.01348 | 26.15255 | 170° | 68km/h | 12857m | 4.3m/s | -53.6°C | 3.3% | 0hPa | 0V | 00:00:00 | 00:00:00 | 00:00:00 | |
| LZ4TU-5 | 2026-09-04 11:54:27 | 44.03462 | 26.15047 | 182° | 89km/h | 12388m | 4.4m/s | -57.9°C | 23.0% | 0hPa | 0V | 00:00:00 | 00:00:00 | 00:00:00 | |
| LZ4TU-5 | 2026-09-04 11:54:22 | 44.03577 | 26.15051 | 184° | 91km/h | 12368m | 4.5m/s | -57.9°C | 24.8% | 0hPa | 0V | 00:00:00 | 00:00:00 | 00:00:00 | |
| LZ4TU-5 | 2026-09-04 11:52:32 | 44.06487 | 26.15885 | 195° | 131km/h | 11877m | 4.6m/s | -57.3°C | 51.4% | 0hPa | 0V | 00:00:00 | 00:00:00 | 00:00:00 | |
| LZ4TU-5 | 2026-09-04 11:52:28 | 44.06617 | 26.15929 | 195° | 133km/h | 11858m | 5.3m/s | -57.1°C | 49.5% | 0hPa | 0V | 00:00:00 | 00:00:00 | 00:00:00 | |
| LZ4TU-5 | 2026-09-04 11:50:39 | 44.10215 | 26.17235 | 197° | 133km/h | 11381m | 4.2m/s | -52.6°C | 30.7% | 0hPa | 0V | 00:00:00 | 00:00:00 | 00:00:00 | |
| LZ4TU-5 | 2026-09-04 11:50:35 | 44.10345 | 26.17284 | 196° | 135km/h | 11364m | 4.9m/s | -52.4°C | 0% | 0hPa | 0V | 00:00:00 | 00:00:00 | 00:00:00 | |
| LZ4TU-5 | 2026-09-04 11:48:37 | 44.14711 | 26.18989 | 196° | 157km/h | 10859m | 4.4m/s | -50.0°C | 34.8% | 0hPa | 0V | 00:00:00 | 00:00:00 | 00:00:00 | |
| LZ4TU-5 | 2026-09-04 11:48:32 | 44.14903 | 26.19062 | 197° | 159km/h | 10839m | 3.7m/s | -49.9°C | 35.6% | 0hPa | 0V | 00:00:00 | 00:00:00 | 00:00:00 | |
| LZ4TU-5 | 2026-09-04 11:46:49 | 44.18854 | 26.20596 | 197° | 155km/h | 10437m | 2.7m/s | -46.4°C | 35.2% | 0hPa | 0V | 00:00:00 | 00:00:00 | 00:00:00 | |
| LZ4TU-5 | 2026-09-04 11:46:44 | 44.19045 | 26.20673 | 197° | 161km/h | 10418m | 3.8m/s | -46.3°C | 35.3% | 0hPa | 0V | 00:00:00 | 00:00:00 | 00:00:00 | |
| LZ4TU-5 | 2026-09-04 11:44:57 | 44.23167 | 26.22275 | 198° | 157km/h | 10021m | 3.4m/s | -43.0°C | 32.1% | 0hPa | 0V | 00:00:00 | 00:00:00 | 00:00:00 | |
| LZ4TU-5 | 2026-09-04 11:44:54 | 44.23319 | 26.22342 | 198° | 159km/h | 10005m | 3.2m/s | -42.8°C | 32.7% | 0hPa | 0V | 00:00:00 | 00:00:00 | 00:00:00 | |
| LZ4TU-5 | 2026-09-04 11:43:16 | 44.26803 | 26.23948 | 201° | 139km/h | 9629m | 3.6m/s | -39.7°C | 0% | 0hPa | 0V | 00:00:00 | 00:00:00 | 00:00:00 | |
| LZ4TU-5 | 2026-09-04 11:43:11 | 44.26968 | 26.24032 | 201° | 141km/h | 9609m | 4.8m/s | -39.6°C | 27.7% | 0hPa | 0V | 00:00:00 | 00:00:00 | 00:00:00 | |
| LZ4TU-5 | 2026-09-04 11:41:36 | 44.29979 | 26.25395 | 198° | 120km/h | 9241m | 4.1m/s | -36.6°C | 36.0% | 0hPa | 0V | 00:00:00 | 00:00:00 | 00:00:00 | |
| LZ4TU-5 | 2026-09-04 11:39:27 | 44.33569 | 26.26703 | 193° | 111km/h | 8735m | 4.3m/s | -32.6°C | 53.3% | 0hPa | 0V | 00:00:00 | 00:00:00 | 00:00:00 | |
| LZ4TU-5 | 2026-09-04 11:39:23 | 44.33677 | 26.26735 | 193° | 110km/h | 8719m | 4.1m/s | -32.5°C | 53.7% | 0hPa | 0V | 00:00:00 | 00:00:00 | 00:00:00 | |
| LZ4TU-5 | 2026-09-04 11:37:33 | 44.36588 | 26.27515 | 190° | 97km/h | 8282m | 3.6m/s | -29.2°C | 48.8% | 0hPa | 0V | 00:00:00 | 00:00:00 | 00:00:00 | |
| LZ4TU-5 | 2026-09-04 11:35:50 | 44.39092 | 26.28110 | 193° | 86km/h | 7860m | 3.9m/s | -26.3°C | 44.3% | 0hPa | 0V | 00:00:00 | 00:00:00 | 00:00:00 | |
| LZ4TU-5 | 2026-09-04 11:35:48 | 44.39199 | 26.28142 | 193° | 88km/h | 7842m | 4.8m/s | -26.2°C | 43.8% | 0hPa | 0V | 00:00:00 | 00:00:00 | 00:00:00 | |
| LZ4TU-5 | 2026-09-04 11:34:24 | 44.40686 | 26.28486 | 192° | 71km/h | 7559m | 4.9m/s | -24.1°C | 34.1% | 0hPa | 0V | 00:00:00 | 00:00:00 | 00:00:00 | |
| LZ4TU-5 | 2026-09-04 11:34:19 | 44.40777 | 26.28511 | 189° | 73km/h | 7541m | 3.9m/s | -24.1°C | 32.0% | 0hPa | 0V | 00:00:00 | 00:00:00 | 00:00:00 | |
| LZ4TU-5 | 2026-09-04 11:33:05 | 44.41979 | 26.28707 | 184° | 57km/h | 7257m | 2.8m/s | -22.2°C | 14.3% | 0hPa | 0V | 00:00:00 | 00:00:00 | 00:00:00 | |
| LZ4TU-5 | 2026-09-04 11:33:00 | 44.42035 | 26.28711 | 184° | 57km/h | 7242m | 4.4m/s | -22.1°C | 13.5% | 0hPa | 0V | 00:00:00 | 00:00:00 | 00:00:00 | |
| LZ4TU-5 | 2026-09-04 11:31:51 | 44.42926 | 26.28663 | 179° | 44km/h | 6980m | 3.4m/s | -20.9°C | 4.6% | 0hPa | 0V | 00:00:00 | 00:00:00 | 00:00:00 | |
| LZ4TU-5 | 2026-09-04 11:31:47 | 44.42973 | 26.28661 | 181° | 47km/h | 6964m | 3.4m/s | -20.8°C | 4.5% | 0hPa | 0V | 00:00:00 | 00:00:00 | 00:00:00 | |
| LZ4TU-5 | 2026-09-04 11:30:41 | 44.43672 | 26.28526 | 167° | 37km/h | 6697m | 3.6m/s | -19.0°C | 9.9% | 0hPa | 0V | 00:00:00 | 00:00:00 | 00:00:00 | |
| LZ4TU-5 | 2026-09-04 11:30:36 | 44.43716 | 26.28513 | 166° | 35km/h | 6677m | 4.7m/s | -18.8°C | 10.8% | 0hPa | 0V | 00:00:00 | 00:00:00 | 00:00:00 | |
| LZ4TU-5 | 2026-09-04 11:29:29 | 44.44188 | 26.28282 | 168° | 29km/h | 6423m | 4.1m/s | -17.0°C | 14.5% | 0hPa | 0V | 00:00:00 | 00:00:00 | 00:00:00 | |
| LZ4TU-5 | 2026-09-04 11:29:24 | 44.44229 | 26.28276 | 175° | 37km/h | 6406m | 3.5m/s | -16.9°C | 14.6% | 0hPa | 0V | 00:00:00 | 00:00:00 | 00:00:00 | |
| LZ4TU-5 | 2026-09-04 11:28:15 | 44.44730 | 26.28096 | 168° | 26km/h | 6168m | 4.4m/s | -15.7°C | 35.3% | 0hPa | 0V | 00:00:00 | 00:00:00 | 00:00:00 | |
| LZ4TU-5 | 2026-09-04 11:28:10 | 44.44762 | 26.28084 | 165° | 26km/h | 6149m | 3.2m/s | -15.6°C | 35.6% | 0hPa | 0V | 00:00:00 | 00:00:00 | 00:00:00 | |
| LZ4TU-5 | 2026-09-04 11:26:55 | 44.45244 | 26.27848 | 164° | 26km/h | 5899m | 3.9m/s | -14.5°C | 40.8% | 0hPa | 0V | 00:00:00 | 00:00:00 | 00:00:00 | |
| LZ4TU-5 | 2026-09-04 11:26:50 | 44.45275 | 26.27836 | 170° | 27km/h | 5881m | 4.3m/s | -14.4°C | 40.7% | 0hPa | 0V | 00:00:00 | 00:00:00 | 00:00:00 | |
| LZ4TU-5 | 2026-09-04 11:25:48 | 44.45709 | 26.27647 | 157° | 31km/h | 5653m | 3.7m/s | -12.6°C | 37.7% | 0hPa | 0V | 00:00:00 | 00:00:00 | 00:00:00 | |
| LZ4TU-5 | 2026-09-04 11:25:43 | 44.45748 | 26.27625 | 157° | 33km/h | 5634m | 3.0m/s | -12.5°C | 37.8% | 0hPa | 0V | 00:00:00 | 00:00:00 | 00:00:00 | |
| LZ4TU-5 | 2026-09-04 11:24:38 | 44.46178 | 26.27419 | 164° | 29km/h | 5390m | 3.1m/s | -10.8°C | 38.5% | 0hPa | 0V | 00:00:00 | 00:00:00 | 00:00:00 | |
| LZ4TU-5 | 2026-09-04 11:24:33 | 44.46210 | 26.27403 | 165° | 26km/h | 5372m | 4.6m/s | -10.6°C | 38.4% | 0hPa | 0V | 00:00:00 | 00:00:00 | 00:00:00 | |
| LZ4TU-5 | 2026-09-04 11:23:31 | 44.46658 | 26.27236 | 167° | 31km/h | 5135m | 3.0m/s | -9.0°C | 41.4% | 0hPa | 0V | 00:00:00 | 00:00:00 | 00:00:00 | |
| LZ4TU-5 | 2026-09-04 11:22:23 | 44.47207 | 26.27131 | 174° | 38km/h | 4888m | 4.0m/s | -7.3°C | 43.0% | 0hPa | 0V | 00:00:00 | 00:00:00 | 00:00:00 | |
| LZ4TU-5 | 2026-09-04 11:22:18 | 44.47251 | 26.27123 | 174° | 33km/h | 4870m | 3.8m/s | -7.1°C | 43.2% | 0hPa | 0V | 00:00:00 | 00:00:00 | 00:00:00 | |
| LZ4TU-5 | 2026-09-04 11:21:17 | 44.47724 | 26.27059 | 169° | 26km/h | 4625m | 3.6m/s | -5.8°C | 45.2% | 0hPa | 0V | 00:00:00 | 00:00:00 | 00:00:00 | |
| LZ4TU-5 | 2026-09-04 11:21:12 | 44.47753 | 26.27051 | 170° | 24km/h | 4599m | 6.9m/s | -5.8°C | 46.4% | 0hPa | 0V | 00:00:00 | 00:00:00 | 00:00:00 | |
| LZ4TU-5 | 2026-09-04 11:20:10 | 44.47943 | 26.26899 | 119° | 15km/h | 4352m | 3.4m/s | -5.7°C | 66.1% | 0hPa | 0V | 00:00:00 | 00:00:00 | 00:00:00 | |
| LZ4TU-5 | 2026-09-04 11:20:05 | 44.47950 | 26.26881 | 129° | 7km/h | 4333m | 4.0m/s | -5.5°C | 65.6% | 0hPa | 0V | 00:00:00 | 00:00:00 | 00:00:00 | |
| LZ4TU-5 | 2026-09-04 11:19:03 | 44.48021 | 26.26673 | 144° | 16km/h | 4078m | 4.7m/s | -3.3°C | 57.1% | 0hPa | 0V | 00:00:00 | 00:00:00 | 00:00:00 | |
| LZ4TU-5 | 2026-09-04 11:18:58 | 44.48038 | 26.26657 | 140° | 15km/h | 4059m | 3.3m/s | -3.2°C | 56.2% | 0hPa | 0V | 00:00:00 | 00:00:00 | 00:00:00 | |
| LZ4TU-5 | 2026-09-04 11:17:58 | 44.48246 | 26.26484 | 156° | 16km/h | 3848m | 2.9m/s | -1.8°C | 59.0% | 0hPa | 0V | 00:00:00 | 00:00:00 | 00:00:00 | |
| LZ4TU-5 | 2026-09-04 11:17:53 | 44.48264 | 26.26469 | 150° | 16km/h | 3830m | 4.1m/s | -1.7°C | 0% | 0hPa | 0V | 00:00:00 | 00:00:00 | 00:00:00 | |
| LZ4TU-5 | 2026-09-04 11:16:58 | 44.48488 | 26.26268 | 157° | 20km/h | 3643m | 3.0m/s | -0.4°C | 65.5% | 0hPa | 0V | 00:00:00 | 00:00:00 | 00:00:00 | |
| LZ4TU-5 | 2026-09-04 11:16:53 | 44.48512 | 26.26252 | 148° | 20km/h | 3627m | 3.7m/s | -0.3°C | 0% | 0hPa | 0V | 00:00:00 | 00:00:00 | 00:00:00 | |
| LZ4TU-5 | 2026-09-04 11:15:58 | 44.48751 | 26.26053 | 143° | 16km/h | 3455m | 2.5m/s | 0.9°C | 0% | 0hPa | 0V | 00:00:00 | 00:00:00 | 00:00:00 | |
| LZ4TU-5 | 2026-09-04 11:15:53 | 44.48770 | 26.26035 | 149° | 18km/h | 3438m | 2.9m/s | 0.9°C | 0% | 0hPa | 0V | 00:00:00 | 00:00:00 | 00:00:00 | |
| LZ4TU-5 | 2026-09-04 11:14:57 | 44.48965 | 26.25813 | 138° | 22km/h | 3269m | 3.0m/s | 1.3°C | 0% | 0hPa | 0V | 00:00:00 | 00:00:00 | 00:00:00 | |
| LZ4TU-5 | 2026-09-04 11:14:53 | 44.48981 | 26.25792 | 132° | 24km/h | 3258m | 3.5m/s | 1.4°C | 0% | 0hPa | 0V | 00:00:00 | 00:00:00 | 00:00:00 | |
| LZ4TU-5 | 2026-09-04 11:13:58 | 44.49157 | 26.25470 | 134° | 18km/h | 3079m | 4.0m/s | 2.4°C | 0% | 0hPa | 0V | 00:00:00 | 00:00:00 | 00:00:00 | |
| LZ4TU-5 | 2026-09-04 11:13:53 | 44.49175 | 26.25446 | 134° | 18km/h | 3063m | 2.9m/s | 2.4°C | 0% | 0hPa | 0V | 00:00:00 | 00:00:00 | 00:00:00 | |
| LZ4TU-5 | 2026-09-04 11:12:58 | 44.49249 | 26.25093 | 102° | 15km/h | 2841m | 3.1m/s | 3.6°C | 0% | 0hPa | 0V | 00:00:00 | 00:00:00 | 00:00:00 | |
| LZ4TU-5 | 2026-09-04 11:12:53 | 44.49253 | 26.25067 | 98° | 22km/h | 2825m | 5.0m/s | 0°C | 0% | 0hPa | 0V | 00:00:00 | 00:00:00 | 00:00:00 | |
| LZ4TU-5 | 2026-09-04 11:11:57 | 44.49303 | 26.24638 | 109° | 29km/h | 2618m | 4.4m/s | 0°C | 0% | 0hPa | 0V | 00:00:00 | 00:00:00 | 00:00:00 | |
| LZ4TU-5 | 2026-09-04 11:11:53 | 44.49315 | 26.24594 | 106° | 31km/h | 2604m | 2.3m/s | 0°C | 0% | 0hPa | 0V | 00:00:00 | 00:00:00 | 00:00:00 | |
| LZ4TU-5 | 2026-09-04 11:10:57 | 44.49386 | 26.24141 | 105° | 18km/h | 2377m | 5.5m/s | 0°C | 0% | 0hPa | 0V | 00:00:00 | 00:00:00 | 00:00:00 | |
| LZ4TU-5 | 2026-09-04 11:10:53 | 44.49389 | 26.24114 | 107° | 22km/h | 2357m | 3.9m/s | 0°C | 0% | 0hPa | 0V | 00:00:00 | 00:00:00 | 00:00:00 | |
| LZ4TU-5 | 2026-09-04 11:09:57 | 44.49513 | 26.23733 | 117° | 16km/h | 2124m | 5.5m/s | 0°C | 0% | 0hPa | 0V | 00:00:00 | 00:00:00 | 00:00:00 | |
| LZ4TU-5 | 2026-09-04 11:09:53 | 44.49521 | 26.23715 | 107° | 13km/h | 2105m | 4.1m/s | 0°C | 0% | 0hPa | 0V | 00:00:00 | 00:00:00 | 00:00:00 | |
| LZ4TU-5 | 2026-09-04 11:08:58 | 44.49613 | 26.23424 | 126° | 18km/h | 1891m | 5.8m/s | 0°C | 0% | 0hPa | 0V | 00:00:00 | 00:00:00 | 00:00:00 | |
| LZ4TU-5 | 2026-09-04 11:08:52 | 44.49617 | 26.23399 | 95° | 15km/h | 1871m | 4.6m/s | 0°C | 0% | 0hPa | 0V | 00:00:00 | 00:00:00 | 00:00:00 | |
| LZ4TU-5 | 2026-09-04 11:07:56 | 44.49723 | 26.23167 | 163° | 24km/h | 1665m | 4.2m/s | 0°C | 0% | 0hPa | 0V | 00:00:00 | 00:00:00 | 00:00:00 |